Time;durP1;ratioP1;P1;durP2;ratioP2;P2;SDS_P1;SDS_P2;PMS_P1;PMS_P2;Temp;Humidity;BMP_temperature;BMP_pressure;BME280_temperature;BME280_humidity;BME280_pressure;Samples;Min_cycle;Max_cycle;Signal;HPM_P1;HPM_P2
2022/03/01 00:01:04;;;;;;;8.20;5.37;;;7.60;34.20;;;7.99;29.35;99920.88;4905227;28;110178;-77
2022/03/01 00:03:34;;;;;;;10.60;6.10;;;7.60;34.80;;;7.98;29.40;99925.53;4905239;28;109644;-81
2022/03/01 00:09:43;;;;;;;7.70;4.60;;;5.80;32.80;;;7.90;29.81;99924.13;4905258;28;124861;-82
2022/03/01 00:15:52;;;;;;;9.67;5.20;;;6.00;33.20;;;7.81;29.79;99920.22;4905117;28;108935;-79
2022/03/01 00:18:21;;;;;;;9.67;5.37;;;7.10;35.50;;;7.80;29.58;99918.56;4903927;28;124709;-76
2022/03/01 00:24:30;;;;;;;8.77;4.90;;;5.20;32.80;;;7.73;29.86;99923.47;4908065;28;109633;-79
2022/03/01 00:30:39;;;;;;;10.43;5.50;;;4.90;32.70;;;7.61;29.93;99931.09;4907956;28;124976;-77
2022/03/01 00:36:47;;;;;;;10.20;5.13;;;4.70;32.90;;;7.45;29.91;99928.25;4908397;28;110334;-76
2022/03/01 00:42:56;;;;;;;11.60;6.87;;;6.70;34.90;;;7.30;30.41;99928.13;4917872;28;125147;-77
2022/03/01 01:07:48;;;;;;;10.83;5.50;;;6.40;35.70;;;7.02;31.08;99919.09;6015914;23;99359;31
2022/03/01 01:14:23;;;;;;;11.93;5.97;;;4.40;34.30;;;6.95;30.93;99910.25;4869867;29;110253;-81
2022/03/01 01:20:31;;;;;;;11.23;5.80;;;5.70;35.60;;;6.88;31.22;99900.56;4868911;29;124332;-79
2022/03/01 01:22:59;;;;;;;10.80;5.90;;;4.40;36.10;;;6.89;31.31;99902.22;4868224;29;123561;-78
2022/03/01 01:26:03;;;;;;;9.40;5.93;;;4.90;35.80;;;6.89;30.77;99897.56;4884148;28;109012;-80
2022/03/01 01:32:12;;;;;;;10.63;5.77;;;4.20;34.80;;;6.74;31.23;99886.41;4868992;29;124330;-85
2022/03/01 01:35:36;;;;;;;11.33;5.87;;;5.70;36.80;;;6.74;31.32;99890.00;4868347;29;124297;-83
2022/03/01 01:42:07;;;;;;;10.80;5.43;;;5.00;35.70;;;6.55;31.59;99889.53;4886006;28;110042;-76
2022/03/01 01:48:16;;;;;;;10.27;5.70;;;4.20;35.30;;;6.48;32.37;99886.19;4887635;28;124107;-82
2022/03/01 02:24:48;;;;;;;12.10;5.87;;;3.70;36.40;;;6.17;32.66;99888.56;4887156;29;109609;-83
2022/03/01 02:27:16;;;;;;;11.13;5.40;;;4.50;38.40;;;6.12;32.91;99882.19;4887004;28;109555;-83
2022/03/01 02:30:03;;;;;;;10.50;5.63;;;7.00;41.00;;;6.16;33.27;99886.09;4888140;28;124082;-85
2022/03/01 02:32:49;;;;;;;10.63;5.33;;;4.40;37.70;;;6.17;32.88;99888.56;4882713;28;124236;-85
2022/03/01 02:35:54;;;;;;;10.30;5.40;;;4.40;37.80;;;6.16;32.76;99880.63;4883250;28;109798;-84
2022/03/01 02:42:03;;;;;;;9.93;5.57;;;3.60;37.00;;;6.03;33.59;99873.59;4901944;28;125037;-84
2022/03/01 02:44:50;;;;;;;10.97;5.83;;;5.20;39.50;;;6.05;33.64;99876.09;4905590;28;124231;-79
2022/03/01 02:50:58;;;;;;;11.40;5.70;;;3.50;37.20;;;5.98;33.35;99873.53;4886135;28;111102;-84
2022/03/01 02:53:25;;;;;;;11.40;5.47;;;5.70;40.50;;;6.00;33.48;99876.03;4885999;29;124068;-85
2022/03/01 02:56:50;;;;;;;9.47;5.67;;;5.60;40.60;;;6.04;33.52;99883.47;4883112;28;124219;-78
2022/03/01 02:59:36;;;;;;;12.00;5.30;;;3.70;37.50;;;5.99;33.09;99875.19;4885700;28;108982;-80
2022/03/01 03:02:42;;;;;;;10.30;5.70;;;4.90;38.60;;;5.96;33.80;99881.19;4883804;28;109621;-85
2022/03/01 03:05:47;;;;;;;11.90;5.57;;;3.20;37.30;;;5.87;34.05;99875.28;4893790;28;124516;-85
2022/03/01 03:08:14;;;;;;;9.43;5.20;;;2.90;37.10;;;5.82;33.46;99871.66;4890043;28;124199;-82
2022/03/01 03:11:02;;;;;;;11.70;6.27;;;8.00;43.00;;;5.84;33.48;99874.97;4902173;28;109743;-85
2022/03/01 03:17:11;;;;;;;9.57;4.90;;;3.10;37.60;;;5.74;34.07;99871.00;4895830;28;124569;-85
2022/03/01 03:20:16;;;;;;;8.70;4.90;;;5.80;40.50;;;5.76;33.27;99873.50;4902606;28;124247;-85
2022/03/01 03:22:45;;;;;;;9.53;5.30;;;3.80;38.30;;;5.70;34.32;99869.06;4901200;28;109766;-86
2022/03/01 03:25:51;;;;;;;10.80;6.20;;;4.00;39.20;;;5.71;34.09;99882.50;4901404;28;109584;-86
2022/03/01 03:28:37;;;;;;;10.57;5.50;;;3.20;37.90;;;5.65;33.47;99878.03;4900089;28;124573;-84
2022/03/01 03:31:23;;;;;;;13.50;6.20;;;4.20;38.90;;;5.66;34.05;99878.84;4900407;28;124277;-85
2022/03/01 03:37:32;;;;;;;10.57;5.30;;;3.50;38.50;;;5.56;34.66;99879.53;4885392;29;110127;-86
2022/03/01 03:40:05;;;;;;;9.87;5.07;;;4.20;40.60;;;5.57;34.29;99883.94;4901283;28;124041;-86
2022/03/01 03:42:50;;;;;;;11.10;6.07;;;3.60;39.30;;;5.58;34.34;99885.59;4903832;28;123656;-84
2022/03/01 03:45:59;;;;;;;13.50;6.80;;;3.30;39.40;;;5.51;33.97;99882.22;4900507;28;109859;-85
2022/03/01 03:57:16;;;;;;;8.87;5.47;;;4.90;40.00;;;5.49;34.36;99874.25;4902370;28;96097;-84
2022/03/01 03:59:44;;;;;;;10.47;5.23;;;2.70;38.30;;;5.46;33.78;99879.41;4829987;29;108647;-85
2022/03/01 04:02:14;;;;;;;10.10;5.40;;;4.80;41.50;;;5.46;34.63;99873.94;4829779;29;124079;-85
2022/03/01 04:08:22;;;;;;;8.10;4.70;;;3.50;39.00;;;5.40;33.99;99872.19;4818156;29;110250;-85
2022/03/01 04:11:08;;;;;;;9.97;6.00;;;2.90;39.70;;;5.43;34.11;99874.44;4827267;29;109441;-85
2022/03/01 04:14:11;;;;;;;9.70;5.67;;;3.00;39.70;;;5.40;34.33;99873.03;4813279;29;123789;-85
2022/03/01 04:16:59;;;;;;;9.33;5.43;;;2.50;38.30;;;5.39;34.18;99871.34;4827383;29;123870;-85
2022/03/01 04:19:45;;;;;;;9.93;5.30;;;3.80;39.40;;;5.35;34.08;99869.34;4774577;29;108831;-85
2022/03/01 04:23:07;;;;;;;9.30;4.90;;;2.90;38.70;;;5.34;34.55;99871.28;4786510;29;108591;-85
2022/03/01 04:25:35;;;;;;;10.90;5.63;;;3.80;39.50;;;5.29;34.13;99869.31;4788061;29;124740;-84
2022/03/01 04:28:23;;;;;;;10.20;5.27;;;4.80;41.10;;;5.31;34.23;99867.13;4788811;29;124339;-85
2022/03/01 04:30:51;;;;;;;11.03;5.60;;;3.10;39.10;;;5.32;34.89;99873.47;4790919;29;109875;-85
2022/03/01 04:33:38;;;;;;;9.67;5.17;;;4.40;41.80;;;5.35;34.89;99869.34;4793114;29;108666;-85
2022/03/01 04:36:42;;;;;;;9.70;5.87;;;4.20;40.10;;;5.31;34.14;99867.13;4797952;29;124593;-86
2022/03/01 04:39:46;;;;;;;11.10;5.73;;;2.40;38.60;;;5.25;34.23;99854.44;4838387;29;123256;-85
2022/03/01 04:42:19;;;;;;;11.20;6.10;;;2.60;38.80;;;5.18;34.45;99862.00;4834995;29;111368;-85
2022/03/01 04:44:49;;;;;;;12.63;6.00;;;4.30;40.30;;;5.17;34.94;99860.34;4847217;29;109909;-85
2022/03/01 04:48:12;;;;;;;9.90;5.80;;;4.50;41.30;;;5.19;34.26;99858.19;4843903;29;124702;-85
2022/03/01 04:50:58;;;;;;;8.70;5.07;;;3.00;39.40;;;5.17;34.40;99854.88;4865512;29;123522;-85
2022/03/01 04:53:44;;;;;;;11.50;5.00;;;2.80;40.10;;;5.18;34.65;99853.78;4881762;29;109820;-86
2022/03/01 04:56:50;;;;;;;9.40;5.03;;;4.40;40.60;;;5.19;34.48;99846.41;4885233;29;109139;-85
2022/03/01 04:59:17;;;;;;;8.97;4.60;;;2.90;39.40;;;5.14;34.42;99844.41;4884288;29;123830;-85
2022/03/01 05:05:26;;;;;;;9.57;5.07;;;3.40;39.80;;;5.06;34.32;99842.09;4885673;29;110176;-85
2022/03/01 05:08:49;;;;;;;10.60;5.43;;;4.30;41.40;;;5.10;34.64;99840.50;4886460;29;109557;-81
2022/03/01 05:11:18;;;;;;;9.33;5.17;;;4.90;41.00;;;5.04;34.97;99841.53;4880689;29;124592;-84
2022/03/01 05:13:45;;;;;;;9.80;4.83;;;2.90;39.80;;;5.03;35.14;99837.13;4883109;29;124307;-85
2022/03/01 05:16:15;;;;;;;9.50;5.63;;;4.60;41.60;;;5.04;34.85;99825.91;4853302;29;108235;-85
2022/03/01 05:19:02;;;;;;;8.13;4.60;;;4.70;41.70;;;5.07;34.95;99822.66;4884086;29;109540;-86
2022/03/01 05:21:51;;;;;;;9.20;5.40;;;3.80;40.40;;;5.07;34.49;99838.28;4885878;29;123227;-85
2022/03/01 05:24:38;;;;;;;9.40;5.07;;;2.50;39.30;;;5.03;34.89;99831.66;4883466;29;123637;-84
2022/03/01 05:27:09;;;;;;;11.07;5.70;;;2.90;39.60;;;4.99;34.94;99827.75;4883918;28;109821;-85
2022/03/01 05:29:56;;;;;;;8.47;5.37;;;2.50;40.40;;;5.00;34.98;99832.97;4869616;29;108583;-86
2022/03/01 05:32:24;;;;;;;9.03;5.50;;;2.70;39.50;;;4.97;34.75;99833.50;4864138;29;123664;-85
2022/03/01 05:35:29;;;;;;;9.07;5.00;;;6.20;43.90;;;5.00;35.12;99840.38;4865882;29;122357;-86
2022/03/01 05:38:16;;;;;;;8.70;5.20;;;3.50;40.30;;;4.99;34.67;99836.78;4867546;29;108621;-85
2022/03/01 05:44:25;;;;;;;11.17;5.83;;;2.90;39.80;;;4.86;34.72;99837.97;4876745;29;124409;-85
2022/03/01 05:50:35;;;;;;;11.80;5.33;;;3.90;40.80;;;4.79;35.18;99841.94;4870434;29;109873;-85
2022/03/01 05:53:01;;;;;;;11.97;5.83;;;3.40;41.00;;;4.76;34.83;99843.28;4884600;29;109544;-86
2022/03/01 05:59:47;;;;;;;9.90;6.47;;;3.10;40.30;;;4.71;35.52;99848.66;4866359;29;124185;-84
2022/03/01 06:02:15;;;;;;;8.30;5.30;;;3.30;40.50;;;4.65;35.57;99852.41;4865070;29;108624;-84
2022/03/01 06:04:44;;;;;;;10.93;5.77;;;3.10;41.20;;;4.70;35.44;99866.19;4882128;29;109702;-84
2022/03/01 06:07:14;;;;;;;10.47;5.70;;;6.10;43.80;;;4.70;35.37;99866.19;4879097;29;124658;-84
2022/03/01 06:09:40;;;;;;;8.73;5.37;;;3.30;40.80;;;4.70;35.28;99860.72;4872537;29;123781;-85
2022/03/01 06:12:10;;;;;;;9.80;5.23;;;3.20;41.50;;;4.75;35.54;99868.16;4873965;29;108913;-85
2022/03/01 06:14:57;;;;;;;9.83;5.77;;;2.30;40.70;;;4.74;35.19;99867.31;4881042;29;109543;-86
2022/03/01 06:17:43;;;;;;;10.70;5.53;;;2.80;40.40;;;4.77;35.03;99872.31;4882204;29;123582;-86
2022/03/01 06:20:13;;;;;;;9.40;5.97;;;4.10;42.40;;;4.73;35.08;99873.03;4852238;29;123647;-86
2022/03/01 06:22:43;;;;;;;12.07;5.43;;;4.00;42.20;;;4.71;35.52;99878.78;4863306;29;108949;-86
2022/03/01 06:25:11;;;;;;;10.73;5.50;;;4.30;42.80;;;4.71;35.16;99884.25;4883495;29;109609;-87
2022/03/01 06:28:01;;;;;;;11.17;5.37;;;3.90;42.10;;;4.77;35.43;99879.69;4879578;29;123704;-86
2022/03/01 06:31:07;;;;;;;8.13;5.33;;;2.90;40.50;;;4.75;35.15;99879.91;4881896;29;122293;-86
2022/03/01 06:33:52;;;;;;;11.40;5.83;;;1.90;39.70;;;4.71;35.62;99875.22;4883534;29;109236;-86
2022/03/01 06:36:56;;;;;;;12.23;6.30;;;1.80;40.70;;;4.73;35.56;99881.25;4880828;29;109516;-85
2022/03/01 06:40:06;;;;;;;8.53;5.73;;;1.60;39.40;;;4.76;35.18;99887.06;4868308;29;124101;-87
2022/03/01 06:43:11;;;;;;;12.93;7.37;;;2.10;40.00;;;4.81;35.74;99887.16;4873931;29;124253;-86
2022/03/01 06:45:59;;;;;;;14.27;6.80;;;2.20;40.20;;;4.78;35.95;99895.88;4865827;29;107823;-85
2022/03/01 06:48:29;;;;;;;9.73;5.73;;;3.00;40.90;;;4.81;35.37;99900.84;4865918;29;109813;-86
2022/03/01 06:51:16;;;;;;;12.30;6.07;;;2.70;41.60;;;4.87;35.46;99908.06;4881484;29;123873;-86
2022/03/01 06:54:06;;;;;;;13.40;6.63;;;4.10;41.80;;;4.95;35.40;99911.50;4881235;29;124316;-87
2022/03/01 06:57:11;;;;;;;14.40;6.10;;;5.20;43.80;;;5.04;35.24;99918.22;4847805;29;108063;-86
2022/03/01 06:59:57;;;;;;;10.10;5.40;;;1.90;40.00;;;5.07;35.02;99909.50;4861865;29;108728;-86
2022/03/01 07:02:26;;;;;;;10.23;6.20;;;4.30;43.10;;;5.15;35.69;99922.75;4854590;29;123840;-86
2022/03/01 07:05:17;;;;;;;11.80;6.70;;;2.90;41.60;;;5.21;35.42;99921.78;4858376;29;124501;-88
2022/03/01 07:07:46;;;;;;;12.20;7.37;;;3.90;41.50;;;5.15;35.48;99922.75;4845117;29;108067;-86
2022/03/01 07:10:14;;;;;;;16.50;8.43;;;7.30;44.40;;;5.11;35.11;99927.09;4862896;29;107712;-86
2022/03/01 07:13:03;;;;;;;14.73;8.00;;;6.30;44.20;;;5.09;35.19;99923.78;4861528;29;124642;-85
2022/03/01 07:15:30;;;;;;;12.70;8.07;;;4.40;41.60;;;5.06;35.60;99924.28;4841482;29;123250;-86
2022/03/01 07:18:53;;;;;;;11.57;7.57;;;6.00;43.60;;;5.05;35.29;99928.94;4859271;29;109786;-86
2022/03/01 07:21:43;;;;;;;12.40;7.40;;;4.50;41.70;;;5.06;36.02;99930.56;4847341;29;108757;-85
2022/03/01 07:24:48;;;;;;;13.80;8.40;;;3.30;41.50;;;5.14;36.85;99947.69;4825463;29;122869;-86
2022/03/01 07:27:34;;;;;;;14.87;9.10;;;5.50;44.90;;;5.13;36.47;99941.38;4854098;29;123408;-85
2022/03/01 07:30:05;;;;;;;13.57;7.93;;;4.70;44.50;;;5.17;36.84;99948.00;4844362;29;109778;-86
2022/03/01 07:32:53;;;;;;;12.13;7.00;;;4.60;44.50;;;5.30;36.64;99947.69;4844957;29;108463;-86
2022/03/01 07:39:20;;;;;;;9.17;6.13;;;3.20;42.60;;;5.55;35.87;99938.19;4856233;29;124759;-82
2022/03/01 07:42:26;;;;;;;10.50;6.63;;;4.20;43.80;;;5.63;36.14;99940.50;4851975;29;110425;-86
2022/03/01 07:48:34;;;;;;;16.20;8.00;;;5.00;42.50;;;5.43;35.87;99946.53;4847358;29;125132;-85
2022/03/01 07:51:42;;;;;;;14.00;7.03;;;5.10;43.90;;;5.49;35.29;99950.16;4846643;29;124365;-88
2022/03/01 07:54:27;;;;;;;12.40;7.47;;;6.90;43.80;;;5.55;35.28;99949.16;4835382;29;109042;-87
2022/03/01 08:00:35;;;;;;;10.60;6.50;;;4.80;42.00;;;5.59;35.73;99954.94;4825361;29;125028;-87
2022/03/01 08:06:43;;;;;;;12.67;7.23;;;4.30;41.30;;;5.65;34.50;99941.09;4827624;29;110205;-87
2022/03/01 08:09:12;;;;;;;12.87;8.10;;;5.00;42.60;;;5.67;34.49;99941.69;4824925;29;108990;-87
2022/03/01 08:12:35;;;;;;;13.03;7.37;;;7.20;44.50;;;5.70;35.20;99938.41;4833975;29;123377;-86
2022/03/01 08:15:02;;;;;;;12.23;7.60;;;3.60;40.20;;;5.73;34.28;99934.34;4831748;29;123613;-87
2022/03/01 08:17:30;;;;;;;11.37;6.80;;;4.10;42.50;;;5.80;34.58;99934.16;4823982;29;108642;-87
2022/03/01 08:19:59;;;;;;;13.93;8.40;;;5.60;42.80;;;5.84;34.35;99929.84;4828496;29;109429;-88
2022/03/01 08:26:07;;;;;;;11.97;6.47;;;5.10;41.50;;;5.88;34.96;99922.75;4858108;29;124726;-87
2022/03/01 08:28:35;;;;;;;10.87;7.03;;;5.30;42.80;;;5.92;34.14;99926.66;4842760;29;109176;-87
2022/03/01 08:31:02;;;;;;;12.50;7.23;;;5.20;42.40;;;5.95;33.97;99921.50;4857921;29;109389;-87
2022/03/01 08:33:48;;;;;;;16.70;7.60;;;5.30;42.20;;;6.02;34.04;99924.06;4835438;29;122405;-87
2022/03/01 08:39:58;;;;;;;16.23;7.90;;;3.30;39.10;;;5.94;34.21;99919.03;4867345;29;110278;-80
2022/03/01 08:46:13;;;;;;;10.37;6.40;;;4.70;40.10;;;6.01;34.18;99911.44;4869484;29;125151;-85
2022/03/01 08:52:24;;;;;;;9.83;6.23;;;3.10;38.60;;;6.05;33.68;99909.84;4849806;29;110273;-87
2022/03/01 08:54:51;;;;;;;10.57;6.30;;;4.70;40.80;;;6.12;34.11;99906.91;4842040;29;109911;-87
2022/03/01 08:57:20;;;;;;;13.73;7.30;;;5.40;41.00;;;6.18;33.63;99906.72;4851063;29;123892;-87
2022/03/01 09:03:30;;;;;;;11.03;6.53;;;4.30;38.90;;;6.18;33.32;99903.16;4849288;29;110280;-82
2022/03/01 09:06:34;;;;;;;13.13;7.63;;;3.40;39.40;;;6.22;33.35;99904.28;4848635;29;108570;-88
2022/03/01 09:09:38;;;;;;;11.40;6.43;;;3.40;37.90;;;6.21;33.49;99891.66;4846769;29;124661;-88
2022/03/01 09:19:29;;;;;;;10.67;6.40;;;5.50;39.40;;;6.21;33.06;99888.91;4847666;29;109969;-86
2022/03/01 09:22:21;;;;;;;9.20;6.13;;;5.50;40.80;;;6.30;32.91;99883.78;4843076;29;123927;-86
2022/03/01 09:25:46;;;;;;;12.97;6.80;;;5.90;39.60;;;6.35;32.66;99875.63;4806288;29;124243;-88
2022/03/01 09:28:14;;;;;;;13.50;7.60;;;5.60;39.20;;;6.33;32.49;99878.59;4791973;29;110188;-86
2022/03/01 09:34:22;;;;;;;11.87;7.20;;;5.80;39.00;;;6.32;32.77;99873.38;4792160;29;125154;-87
2022/03/01 09:36:51;;;;;;;15.50;7.33;;;3.50;38.00;;;6.32;32.17;99870.66;4784315;29;122229;-87
2022/03/01 09:39:39;;;;;;;11.03;7.10;;;7.90;42.00;;;6.40;32.61;99876.50;4803607;29;109168;-87
2022/03/01 09:42:08;;;;;;;11.13;7.27;;;5.60;38.90;;;6.40;33.11;99876.50;4781681;29;108148;-87
2022/03/01 09:44:36;;;;;;;10.20;6.93;;;5.70;39.70;;;6.43;32.33;99866.91;4786682;29;123510;-85
2022/03/01 09:47:04;;;;;;;12.57;6.80;;;5.80;39.10;;;6.48;32.78;99875.22;4800564;29;123446;-86
2022/03/01 09:49:51;;;;;;;11.10;6.50;;;6.00;40.20;;;6.57;31.96;99856.34;4813488;29;108772;-84
2022/03/01 09:52:37;;;;;;;9.53;5.77;;;3.90;37.10;;;6.60;32.24;99856.63;4789867;29;108796;-87
2022/03/01 09:55:06;;;;;;;10.70;5.60;;;5.90;39.10;;;6.63;32.51;99861.59;4801205;29;123174;-87
2022/03/01 09:57:35;;;;;;;9.67;6.47;;;5.90;39.80;;;6.70;32.32;99863.31;4800147;29;123794;-86
2022/03/01 10:00:06;;;;;;;8.67;5.40;;;4.20;37.60;;;6.76;31.97;99856.78;4790217;29;108913;-87
2022/03/01 10:02:39;;;;;;;12.20;6.10;;;3.80;37.20;;;6.81;32.32;99846.66;4841318;29;107841;-85
2022/03/01 10:05:07;;;;;;;9.73;5.33;;;7.50;40.10;;;6.89;32.57;99853.59;4859467;29;123559;-86
2022/03/01 10:07:34;;;;;;;11.67;6.90;;;6.20;39.10;;;6.96;31.74;99845.13;4872149;29;122632;-87
2022/03/01 10:10:58;;;;;;;9.97;6.20;;;7.70;40.40;;;6.95;31.64;99855.28;4854139;29;114826;-87
2022/03/01 10:17:16;;;;;;;10.17;5.77;;;6.20;37.80;;;6.95;31.46;99849.78;4862764;29;124794;-86
2022/03/01 10:23:24;;;;;;;8.80;5.50;;;4.20;36.20;;;7.06;31.89;99843.28;4863368;29;116236;-88
2022/03/01 10:25:53;;;;;;;9.63;6.00;;;6.60;39.00;;;7.11;31.34;99836.19;4860339;29;115601;-86
2022/03/01 10:29:22;;;;;;;8.40;4.70;;;6.50;38.90;;;7.27;31.27;99833.25;4848058;29;122582;-87
2022/03/01 10:32:13;;;;;;;9.30;5.10;;;8.70;39.70;;;7.39;30.24;99832.22;4856672;29;124269;-88
2022/03/01 10:35:18;;;;;;;8.63;5.80;;;6.60;37.50;;;7.43;31.43;99834.19;4864709;29;114227;-81
2022/03/01 10:38:06;;;;;;;11.77;6.20;;;5.20;36.00;;;7.48;30.55;99828.72;4859768;29;114792;-88
2022/03/01 10:41:02;;;;;;;9.07;5.33;;;6.80;36.90;;;7.59;31.03;99826.03;4854555;29;123068;-87
2022/03/01 10:43:31;;;;;;;9.93;5.90;;;6.80;36.90;;;7.60;30.81;99825.75;4856785;29;123661;-88
2022/03/01 10:49:41;;;;;;;12.43;6.70;;;7.00;36.90;;;7.79;30.49;99817.03;4850030;29;114504;-87
2022/03/01 10:52:09;;;;;;;9.07;5.83;;;9.30;39.00;;;7.90;30.40;99824.25;4857000;29;124164;-89
2022/03/01 10:54:54;;;;;;;7.70;5.10;;;6.60;37.60;;;8.05;30.74;99815.19;4857273;29;123780;-86
2022/03/01 10:57:23;;;;;;;10.27;5.63;;;8.90;38.80;;;8.16;30.28;99823.19;4852645;29;113830;-87
2022/03/01 11:07:13;;;;;;;9.07;6.10;;;7.60;35.70;;;8.47;29.87;99816.97;4852784;29;124061;-88
2022/03/01 11:09:41;;;;;;;9.87;6.03;;;7.90;36.70;;;8.59;30.41;99815.59;4855779;29;114290;-88
2022/03/01 11:12:11;;;;;;;10.27;5.70;;;7.90;37.20;;;8.74;29.93;99812.03;4851645;29;114500;-87
2022/03/01 11:15:34;;;;;;;8.83;5.60;;;8.60;37.10;;;8.89;29.51;99805.69;4850354;29;122090;-89
2022/03/01 11:18:32;;;;;;;8.93;5.70;;;8.20;36.20;;;9.03;29.41;99797.69;4835036;29;124225;-88
2022/03/01 11:21:20;;;;;;;10.00;5.73;;;8.30;35.60;;;9.12;29.35;99796.03;4816844;29;113135;-89
2022/03/01 11:27:30;;;;;;;10.90;5.87;;;8.40;35.60;;;9.44;28.84;99784.63;4844085;29;124288;-87
2022/03/01 11:30:10;;;;;;;7.97;5.40;;;8.60;35.60;;;9.61;28.58;99780.72;4849692;29;123216;-86
2022/03/01 11:32:42;;;;;;;8.07;4.80;;;8.70;35.40;;;9.73;28.56;99778.47;4846672;29;113516;-87
2022/03/01 11:35:30;;;;;;;7.90;5.10;;;8.90;35.40;;;9.86;28.10;99782.53;4826836;29;113310;-86
2022/03/01 11:38:08;;;;;;;9.20;5.33;;;9.00;34.40;;;10.02;28.04;99773.06;4844585;29;123628;-87
2022/03/01 11:41:10;;;;;;;31.13;6.40;;;7.00;32.60;;;10.12;26.44;99767.47;4979767;28;97138;-88
2022/03/01 11:43:39;;;;;;;9.33;5.90;;;9.30;32.40;;;10.18;27.07;99774.63;4953965;28;106309;-88
2022/03/01 11:46:18;;;;;;;11.60;5.40;;;9.40;33.20;;;10.36;27.35;99769.56;4971587;28;124284;-89
2022/03/01 11:48:56;;;;;;;6.97;4.47;;;9.50;33.50;;;10.55;27.10;99776.03;4935187;28;122842;-89
2022/03/01 11:51:39;;;;;;;7.43;4.93;;;9.60;33.60;;;10.71;27.69;99759.34;4959829;28;107044;-88
2022/03/01 11:54:10;;;;;;;6.13;4.40;;;9.80;33.50;;;10.88;27.13;99764.44;4933584;28;107649;-88
2022/03/01 11:56:40;;;;;;;7.30;4.63;;;9.90;33.30;;;10.99;26.16;99743.88;4935569;28;124060;-88
2022/03/01 11:59:12;;;;;;;8.20;4.90;;;10.10;31.50;;;11.11;26.00;99758.13;4936446;28;123928;-88
2022/03/01 12:01:39;;;;;;;7.27;4.40;;;10.20;31.20;;;11.25;26.41;99752.72;4946520;28;107547;-89
2022/03/01 12:04:08;;;;;;;6.80;4.30;;;10.30;31.10;;;11.38;25.67;99752.03;4939702;28;106595;-85
2022/03/01 12:06:38;;;;;;;8.07;3.97;;;10.50;31.00;;;11.52;26.02;99745.78;4946225;28;123711;-88
2022/03/01 12:09:08;;;;;;;7.27;4.03;;;10.60;30.80;;;11.67;25.57;99746.41;4958736;28;122959;-89
2022/03/01 12:11:39;;;;;;;7.90;4.40;;;10.80;31.20;;;11.84;26.16;99743.13;4928718;28;108063;-87
2022/03/01 12:14:12;;;;;;;5.60;3.60;;;10.90;31.30;;;12.01;25.59;99741.84;4959565;28;107421;-85
2022/03/01 12:16:39;;;;;;;8.43;5.43;;;11.10;31.20;;;12.08;25.16;99745.06;4920258;28;122455;-89
2022/03/01 12:19:22;;;;;;;9.70;5.73;;;11.20;30.10;;;12.13;24.97;99739.44;4939742;28;124079;-87
2022/03/01 12:21:57;;;;;;;10.60;7.17;;;10.00;29.00;;;12.15;24.73;99739.97;4940368;28;107466;-86
2022/03/01 12:24:48;;;;;;;8.93;6.13;;;11.30;29.20;;;12.20;24.29;99733.53;4935936;28;107250;-89
2022/03/01 12:27:15;;;;;;;10.77;6.83;;;11.40;29.40;;;12.18;23.83;99735.78;4966339;28;124777;-86
2022/03/01 12:29:48;;;;;;;10.10;6.30;;;11.40;28.20;;;12.18;23.83;99730.25;4966046;28;123916;-89
2022/03/01 12:32:19;;;;;;;9.00;5.50;;;11.40;28.70;;;12.28;24.70;99727.31;4950119;28;106679;-89
2022/03/01 12:34:46;;;;;;;10.27;6.00;;;11.50;29.20;;;12.43;24.35;99727.06;4949221;28;106758;-88
2022/03/01 12:37:18;;;;;;;9.60;5.40;;;11.60;29.70;;;12.60;24.53;99726.53;4965410;28;124399;-88
2022/03/01 12:39:46;;;;;;;9.93;6.83;;;11.70;29.30;;;12.78;23.85;99722.84;4959039;28;123777;-88
2022/03/01 12:42:12;;;;;;;8.10;5.53;;;11.90;28.80;;;12.95;24.08;99711.19;4960906;28;109360;-88
2022/03/01 12:44:39;;;;;;;8.47;5.13;;;12.10;29.30;;;13.14;23.81;99718.63;4949773;28;106861;-87
2022/03/01 12:47:09;;;;;;;8.20;5.77;;;12.40;29.50;;;13.30;23.29;99708.06;4948409;28;123902;-88
2022/03/01 12:49:40;;;;;;;9.30;6.23;;;12.40;28.40;;;13.44;23.08;99703.34;4964214;28;123736;-90
2022/03/01 12:52:06;;;;;;;6.83;4.90;;;12.60;28.00;;;13.57;23.16;99691.41;4953725;28;107628;-87
2022/03/01 12:54:34;;;;;;;7.50;4.73;;;12.80;28.40;;;13.72;22.98;99686.63;4950782;28;107134;-88
2022/03/01 12:57:06;;;;;;;7.43;5.37;;;12.90;28.10;;;13.88;22.91;99677.63;4928265;28;123548;-88
2022/03/01 12:59:34;;;;;;;9.27;6.40;;;13.00;28.30;;;13.91;21.87;99676.19;4934043;28;124370;-89
2022/03/01 13:02:04;;;;;;;7.70;5.50;;;13.10;26.80;;;13.90;22.34;99675.38;4934834;28;107375;-89
2022/03/01 13:04:34;;;;;;;9.73;6.40;;;13.20;27.30;;;13.98;21.05;99682.16;4943687;28;107501;-88
2022/03/01 13:07:02;;;;;;;10.50;6.40;;;13.20;26.00;;;13.91;21.86;99676.19;4924568;28;123646;-91
2022/03/01 13:09:28;;;;;;;7.40;4.93;;;13.20;26.70;;;13.96;22.14;99667.75;4922759;28;123442;-88
2022/03/01 13:11:56;;;;;;;8.50;5.23;;;13.30;27.20;;;14.06;21.76;99666.69;4902517;28;106914;-89
2022/03/01 13:14:24;;;;;;;9.43;5.13;;;13.00;26.70;;;14.12;21.99;99666.25;4920157;28;107411;-88
2022/03/01 13:16:54;;;;;;;9.80;5.80;;;13.40;26.70;;;14.21;21.08;99662.72;4925852;28;124042;-90
2022/03/01 13:19:30;;;;;;;8.17;5.83;;;13.50;26.40;;;14.19;21.75;99649.16;4922209;28;124387;-90
2022/03/01 13:22:05;;;;;;;7.70;5.40;;;13.50;26.70;;;14.21;21.89;99657.16;4902367;28;106522;-86
2022/03/01 13:24:38;;;;;;;7.63;5.00;;;13.50;26.80;;;14.28;21.98;99654.75;4927703;28;106323;-86
2022/03/01 13:27:12;;;;;;;6.37;4.47;;;13.60;27.00;;;14.36;22.13;99654.00;4926888;28;124049;-85
2022/03/01 13:29:40;;;;;;;6.13;3.47;;;13.70;26.80;;;14.48;22.20;99651.47;4909190;28;123504;-89
2022/03/01 13:32:14;;;;;;;4.73;3.57;;;13.80;27.20;;;14.63;22.28;99641.09;4925313;28;107901;-88
2022/03/01 13:34:46;;;;;;;6.17;4.80;;;13.90;27.50;;;14.73;22.13;99646.41;4925957;28;107308;-88
2022/03/01 13:37:16;;;;;;;7.97;4.50;;;14.00;27.80;;;14.71;21.80;99629.22;4916025;28;124191;-85
2022/03/01 13:39:48;;;;;;;6.10;4.13;;;14.10;26.90;;;14.75;21.91;99631.03;4927712;28;123675;-85
2022/03/01 13:42:16;;;;;;;5.37;4.17;;;14.10;26.90;;;14.77;21.75;99630.69;4950222;28;106632;-88
2022/03/01 13:44:46;;;;;;;5.57;4.17;;;14.20;26.60;;;14.80;21.92;99625.34;4939014;28;107968;-86
2022/03/01 13:47:16;;;;;;;6.13;4.67;;;14.20;26.80;;;14.82;21.52;99627.78;4946331;28;123992;-88
2022/03/01 13:49:55;;;;;;;6.90;4.43;;;14.20;26.30;;;14.75;21.41;99633.81;4941511;28;124301;-87
2022/03/01 13:52:24;;;;;;;5.83;4.43;;;14.20;26.40;;;14.66;21.27;99635.72;4934062;28;107539;-87
2022/03/01 13:55:00;;;;;;;6.80;4.67;;;14.10;25.70;;;14.55;21.30;99637.13;4945383;28;107269;-86
2022/03/01 13:57:51;;;;;;;5.03;3.70;;;14.10;25.70;;;14.53;21.49;99626.34;4935159;28;123970;-91
2022/03/01 14:00:42;;;;;;;5.43;4.43;;;14.00;26.10;;;14.52;21.40;99619.13;4945653;28;123747;-87
2022/03/01 14:03:34;;;;;;;10.03;5.23;;;14.00;26.30;;;14.48;21.30;99629.22;4945914;28;107875;-88
2022/03/01 14:06:09;;;;;;;7.87;4.23;;;14.00;25.80;;;14.45;21.59;99627.06;4932477;28;107241;-86
2022/03/01 14:08:41;;;;;;;4.97;3.50;;;13.90;26.20;;;14.51;21.59;99616.66;4942645;28;124468;-86
2022/03/01 14:11:16;;;;;;;4.53;3.60;;;14.00;26.40;;;14.63;21.62;99618.84;4942131;28;123867;-88
2022/03/01 14:13:45;;;;;;;5.43;3.57;;;14.10;26.50;;;14.78;21.73;99615.66;4940288;28;107023;-86
2022/03/01 14:16:25;;;;;;;4.83;3.50;;;14.10;26.50;;;14.96;21.49;99619.31;4939453;28;107315;-86
2022/03/01 14:19:04;;;;;;;5.60;3.97;;;14.30;26.60;;;15.08;21.30;99624.28;4942023;28;123499;-87
2022/03/01 14:21:31;;;;;;;4.27;3.57;;;14.40;26.30;;;15.22;21.29;99613.84;4933582;28;123465;-86
2022/03/01 14:23:59;;;;;;;5.50;3.30;;;14.50;26.50;;;15.44;21.15;99604.56;4947202;28;107127;-89
2022/03/01 14:26:27;;;;;;;3.93;3.00;;;14.60;26.50;;;15.61;21.14;99612.94;4940166;28;107593;-89
2022/03/01 14:29:06;;;;;;;5.83;3.70;;;14.80;26.60;;;15.84;21.16;99604.47;4956488;28;124051;-86
2022/03/01 14:31:36;;;;;;;3.50;3.07;;;15.10;26.60;;;16.01;21.03;99601.69;4941279;28;123076;-86
2022/03/01 14:34:04;;;;;;;5.23;3.40;;;15.20;26.60;;;16.19;21.02;99602.47;4948774;28;107302;-88
2022/03/01 14:36:31;;;;;;;4.93;3.87;;;15.40;26.50;;;16.29;20.66;99596.56;4944740;28;107480;-86